createdAt,value
2022-10-25T00:02:59.170Z,5.00
2022-10-25T00:08:00.460Z,5.30
2022-10-25T00:13:45.627Z,4.30
2022-10-25T00:18:02.846Z,2.80
2022-10-25T00:23:03.953Z,1.60
2022-10-25T00:28:06.087Z,1.10
2022-10-25T00:33:05.330Z,1.60
2022-10-25T00:38:06.598Z,2.20
2022-10-25T00:43:07.943Z,1.70
2022-10-25T00:48:09.200Z,1.70
2022-10-25T00:53:11.273Z,0.90
2022-10-25T00:58:11.366Z,3.10
2022-10-25T01:03:11.452Z,1.20
2022-10-25T01:08:09.800Z,1.60
2022-10-25T01:13:10.902Z,1.50
2022-10-25T01:18:12.074Z,2.70
2022-10-25T01:23:13.277Z,1.60
2022-10-25T01:28:14.523Z,2.70
2022-10-25T01:33:17.678Z,1.50
2022-10-25T01:38:16.890Z,1.20
2022-10-25T01:43:17.969Z,0.50
2022-10-25T01:48:19.158Z,4.90
2022-10-25T01:53:19.376Z,1.90
2022-10-25T01:58:22.471Z,3.30
2022-10-25T02:03:21.754Z,1.10
2022-10-25T02:08:22.852Z,3.30
2022-10-25T02:13:24.042Z,2.90
2022-10-25T02:18:27.201Z,1.90
2022-10-25T02:23:26.399Z,2.50
2022-10-25T02:28:27.690Z,2.50
2022-10-25T02:33:28.823Z,2.50
2022-10-25T02:38:30.179Z,1.80
2022-10-25T02:43:32.306Z,3.50
2022-10-25T02:48:31.576Z,4.50
2022-10-25T02:53:32.828Z,1.60
2022-10-25T02:58:34.079Z,1.90
2022-10-25T03:03:35.365Z,6.30
2022-10-25T03:08:36.539Z,4.30
2022-10-25T03:13:37.628Z,1.00
2022-10-25T03:18:40.716Z,2.50
2022-10-25T03:23:39.818Z,1.50
2022-10-25T03:28:41.010Z,1.40
2022-10-25T03:33:47.308Z,2.10
2022-10-25T03:38:43.432Z,1.40
2022-10-25T03:43:42.627Z,0.80
2022-10-25T03:48:44.719Z,0.80
2022-10-25T03:53:43.983Z,1.20
2022-10-25T03:58:45.235Z,0.90
2022-10-25T04:03:46.339Z,1.30
2022-10-25T04:08:47.563Z,0.70
2022-10-25T04:13:49.665Z,1.30
2022-10-25T04:18:48.966Z,4.00
2022-10-25T04:23:50.118Z,2.90
2022-10-25T04:28:51.249Z,1.40
2022-10-25T04:33:52.505Z,0.70
2022-10-25T04:38:53.704Z,1.40
2022-10-25T04:43:54.975Z,1.10
2022-10-25T04:48:56.294Z,1.80
2022-10-25T04:53:58.399Z,1.40
2022-10-25T04:58:57.480Z,5.00
2022-10-25T05:03:58.570Z,1.70
2022-10-25T05:08:59.811Z,1.70
2022-10-25T05:14:02.052Z,1.80
2022-10-25T05:19:01.327Z,1.00
2022-10-25T05:24:02.738Z,2.00
2022-10-25T05:30:22.920Z,1.20
2022-10-25T05:34:03.987Z,2.20
2022-10-25T05:39:06.100Z,0.90
2022-10-25T05:44:05.361Z,1.80
2022-10-25T05:49:06.599Z,1.30
2022-10-25T05:54:08.691Z,2.30
2022-10-25T05:59:07.761Z,3.40
2022-10-25T06:04:09.020Z,2.40
2022-10-25T06:09:11.116Z,5.20
2022-10-25T06:14:10.387Z,1.30
2022-10-25T06:19:11.670Z,1.50
2022-10-25T06:24:13.919Z,1.30
2022-10-25T06:29:14.037Z,1.70
2022-10-25T06:34:13.234Z,1.50
2022-10-25T06:39:14.575Z,2.20
2022-10-25T06:44:16.665Z,1.20
2022-10-25T06:49:17.744Z,2.20
2022-10-25T06:54:16.870Z,1.30
2022-10-25T06:59:18.957Z,2.20
2022-10-25T07:04:19.086Z,1.80
2022-10-25T07:09:19.222Z,2.60
2022-10-25T07:14:19.390Z,2.80
2022-10-25T07:19:19.589Z,2.90
2022-10-25T07:24:19.770Z,4.80
2022-10-25T07:29:20.228Z,4.40
2022-10-25T07:34:19.510Z,2.20
2022-10-25T07:39:20.601Z,2.00
2022-10-25T07:44:24.900Z,3.10
2022-10-25T07:49:24.243Z,1.90
2022-10-25T07:54:25.332Z,2.80
2022-10-25T07:59:25.420Z,2.80
2022-10-25T08:04:24.738Z,2.00
2022-10-25T08:09:37.755Z,1.00
2022-10-25T08:14:26.956Z,3.70
2022-10-25T08:19:26.033Z,2.30
2022-10-25T08:24:27.217Z,2.30
2022-10-25T08:29:28.322Z,2.40
2022-10-25T08:34:32.349Z,3.10
2022-10-25T08:39:30.697Z,1.70
2022-10-25T08:44:31.898Z,8.30
2022-10-25T08:49:34.205Z,2.30
2022-10-25T08:54:33.344Z,1.80
2022-10-25T08:59:34.605Z,1.70
2022-10-25T09:04:37.743Z,1.90
2022-10-25T09:09:37.853Z,1.80
2022-10-25T09:14:38.331Z,1.90
2022-10-25T09:19:37.454Z,1.60
2022-10-25T09:24:38.709Z,1.30
2022-10-25T09:29:39.941Z,1.80
2022-10-25T09:34:41.053Z,2.30
2022-10-25T09:39:42.169Z,3.20
2022-10-25T09:44:43.355Z,1.00
2022-10-25T09:49:45.485Z,2.20
2022-10-25T09:54:43.916Z,1.80
2022-10-25T09:59:45.069Z,1.50
2022-10-25T10:04:46.384Z,0.80
2022-10-25T10:09:47.633Z,2.10
2022-10-25T10:14:49.107Z,2.30
2022-10-25T10:19:48.252Z,6.20
2022-10-25T10:24:50.357Z,1.60
2022-10-25T10:29:49.494Z,2.10
2022-10-25T10:34:50.625Z,2.20
2022-10-25T10:39:51.761Z,1.50
2022-10-25T10:44:52.890Z,2.80
2022-10-25T10:49:54.057Z,1.70
2022-10-25T10:54:55.172Z,1.10
2022-10-25T10:59:56.248Z,3.60
2022-10-25T11:04:57.545Z,0.80
2022-10-25T11:09:58.653Z,4.20
2022-10-25T11:14:59.778Z,2.60
2022-10-25T11:20:01.929Z,1.70
2022-10-25T11:25:01.033Z,2.20
2022-10-25T11:30:02.304Z,3.30
2022-10-25T11:35:05.401Z,3.20
2022-10-25T11:40:04.673Z,1.10
2022-10-25T11:45:05.772Z,0.90
2022-10-25T11:50:06.919Z,2.10
2022-10-25T11:55:08.054Z,2.50
2022-10-25T12:00:09.211Z,5.20
2022-10-25T12:05:11.296Z,3.10
2022-10-25T12:10:10.529Z,1.80
2022-10-25T12:15:11.648Z,2.60
2022-10-25T12:20:12.761Z,2.50
2022-10-25T12:25:14.875Z,1.50
2022-10-25T12:30:14.034Z,2.60
2022-10-25T12:35:15.316Z,2.80
2022-10-25T12:40:16.457Z,1.50
2022-10-25T12:45:17.597Z,4.20
2022-10-25T12:55:20.816Z,1.80
2022-10-25T13:05:20.128Z,1.90
2022-10-25T13:10:21.283Z,1.80
2022-10-25T13:15:22.414Z,2.00
2022-10-25T13:20:23.676Z,0.90
2022-10-25T13:25:25.778Z,4.00
2022-10-25T13:30:25.929Z,6.00
2022-10-25T13:35:25.035Z,5.40
2022-10-25T13:40:26.169Z,2.60
2022-10-25T13:45:30.052Z,1.70
2022-10-25T13:50:27.451Z,2.10
2022-10-25T13:55:29.561Z,1.60
2022-10-25T14:00:28.772Z,1.70
2022-10-25T14:05:31.998Z,3.40
2022-10-25T14:10:31.093Z,2.00
2022-10-25T14:15:32.189Z,2.40
2022-10-25T14:20:33.429Z,2.60
2022-10-25T14:25:34.685Z,3.70
2022-10-25T14:30:36.797Z,1.40
2022-10-25T14:35:37.078Z,1.60
2022-10-25T14:40:37.183Z,1.40
2022-10-25T14:45:36.275Z,1.30
2022-10-25T14:50:37.355Z,0.70
2022-10-25T14:55:38.448Z,2.60
2022-10-25T15:00:39.812Z,1.60
2022-10-25T15:05:41.131Z,3.20
2022-10-25T15:10:42.244Z,0.50
2022-10-25T15:15:43.454Z,3.10
2022-10-25T15:20:45.535Z,3.50
2022-10-25T15:25:44.645Z,1.60
2022-10-25T15:30:45.752Z,3.00
2022-10-25T15:35:47.854Z,1.90
2022-10-25T15:40:47.064Z,3.20
2022-10-25T15:45:48.150Z,4.10
2022-10-25T15:50:49.239Z,4.40
2022-10-25T15:55:51.563Z,2.10
2022-10-25T16:00:51.713Z,6.00
2022-10-25T16:05:50.822Z,2.90
2022-10-25T16:10:52.162Z,7.70
2022-10-25T16:15:53.514Z,2.60
2022-10-25T16:20:54.629Z,1.70
2022-10-25T16:25:56.713Z,1.90
2022-10-25T16:30:56.032Z,4.30
2022-10-25T16:35:57.276Z,2.60
2022-10-25T16:40:58.433Z,3.50
2022-10-25T16:45:59.551Z,2.40
2022-10-25T16:51:00.685Z,1.90
2022-10-25T16:56:02.957Z,1.90
2022-10-25T17:01:03.020Z,6.90
2022-10-25T17:06:16.173Z,2.30
2022-10-25T17:11:04.233Z,6.70
2022-10-25T17:16:04.432Z,6.50
2022-10-25T17:21:03.523Z,5.90
2022-10-25T17:26:05.731Z,5.10
2022-10-25T17:31:05.139Z,2.10
2022-10-25T17:36:06.548Z,3.00
2022-10-25T17:41:07.843Z,3.70
2022-10-25T17:46:09.208Z,5.80
2022-10-25T17:51:10.667Z,6.70
2022-10-25T17:56:11.115Z,4.10
2022-10-25T18:01:10.384Z,6.00
2022-10-25T18:06:12.489Z,3.20
2022-10-25T18:11:11.736Z,3.20
2022-10-25T18:16:13.013Z,5.90
2022-10-25T18:21:14.490Z,5.20
2022-10-25T18:26:13.999Z,7.40
2022-10-25T18:31:15.626Z,7.00
2022-10-25T18:36:15.403Z,16.90
2022-10-25T18:41:14.582Z,15.30
2022-10-25T18:46:16.966Z,2.50
2022-10-25T18:51:16.422Z,12.20
2022-10-25T18:56:21.172Z,4.20
2022-10-25T19:01:18.422Z,42.70
2022-10-25T19:06:18.095Z,62.10
2022-10-25T19:11:19.531Z,28.90
2022-10-25T19:16:18.977Z,25.20
2022-10-25T19:21:21.149Z,6.10
2022-10-25T19:26:20.508Z,4.00
2022-10-25T19:31:22.587Z,10.30
2022-10-25T19:36:22.052Z,29.60
2022-10-25T19:41:23.946Z,21.60
2022-10-25T19:46:24.312Z,13.60
2022-10-25T19:51:23.476Z,10.10
2022-10-25T19:56:24.836Z,37.70
2022-10-25T20:01:24.689Z,7.20
2022-10-25T20:06:27.127Z,4.40
2022-10-25T20:11:26.599Z,30.30
2022-10-25T20:16:27.239Z,41.80
2022-10-25T20:21:27.645Z,5.90
2022-10-25T20:26:27.006Z,19.00
2022-10-25T20:31:28.281Z,27.80
2022-10-25T20:36:29.513Z,38.20
2022-10-25T20:41:30.575Z,17.80
2022-10-25T20:46:32.074Z,33.00
2022-10-25T20:51:31.372Z,16.00
2022-10-25T20:56:33.497Z,14.50
2022-10-25T21:01:33.799Z,12.80
2022-10-25T21:06:33.981Z,9.90
2022-10-25T21:11:33.109Z,8.80
2022-10-25T21:16:34.218Z,26.30
2022-10-25T21:21:35.308Z,24.90
2022-10-25T21:26:37.435Z,7.40
2022-10-25T21:31:37.621Z,13.20
2022-10-25T21:36:37.695Z,38.40
2022-10-25T21:41:36.945Z,54.20
2022-10-25T21:46:38.061Z,17.60
2022-10-25T21:51:39.161Z,6.00
2022-10-25T21:56:40.603Z,14.40
2022-10-25T22:01:41.966Z,21.90
2022-10-25T22:06:43.081Z,25.50
2022-10-25T22:11:44.184Z,11.40
2022-10-25T22:16:45.276Z,4.40
2022-10-25T22:21:46.411Z,4.10
2022-10-25T22:26:47.666Z,2.40
2022-10-25T22:31:49.071Z,11.80
2022-10-25T22:36:50.162Z,10.20
2022-10-25T22:41:51.255Z,3.80
2022-10-25T22:46:53.371Z,60.90
2022-10-25T22:51:52.695Z,54.90
2022-10-25T22:56:53.825Z,34.70
2022-10-25T23:01:53.582Z,35.90
2022-10-25T23:06:54.695Z,37.70
2022-10-25T23:11:56.002Z,4.00
2022-10-25T23:16:57.094Z,5.20
2022-10-25T23:21:57.214Z,5.50
2022-10-25T23:26:59.340Z,4.50
2022-10-25T23:31:58.489Z,3.80
2022-10-25T23:36:59.606Z,9.60
2022-10-25T23:42:00.698Z,5.50
2022-10-25T23:47:01.792Z,6.90
2022-10-25T23:52:03.078Z,6.10
2022-10-25T23:57:04.264Z,4.60
